Suggestion Search

Define a bounding box (note: it will not wrap North/South over poles). If the range is zero degrees, a bounding box will not be used to constrain the search.

Centered On °   °

Match text in the suggestion title, science rationale or special notes. The search is case-insensitive. % is a wildcard (_ for a single character).

Find
Search

You may select science themes to limit query, otherwise suggestions from all themes will be returned.

Multiple values may be selected (shift + click).

  Rows per page
4,124 records found, displaying 101 to 200.[First/Prev] 1, 2, 3, 4, 5, 6, 7, 8 [Next/Last]
ID Suggestion Title Latitude Longitude Repeat Created Observation ID
193847 Candidate recent impact site -3.320 179.729 1 2021-05-10 ESP_069412_1765
193845 Hellas Planitia -43.326 69.486 1 2021-05-10 ESP_069403_1360
193843 Monitoring light and dark slope streaks in MOC image E18-00638 23.515 28.488 1 2021-05-10 ESP_069391_2040
193779 Terrain sample -51.310 345.728 1 2021-05-06 ESP_069327_1285
193715 Terrain in Medusae Fossae -5.519 196.839 1 2021-05-04 ESP_069319_1745
193713 Depression and landforms on lower Arsia Mons west flank -6.387 235.973 1 2021-05-04 ESP_070834_1730
193705 Syria/Claritas dust-raising event monitoring site -14.623 251.884 1 2021-05-04
193703 Candidate recent impact site -1.436 0.138 1 2021-05-04 ESP_069379_1785
193701 Crater and ridge 10.543 129.932 1 2021-05-04 ESP_069361_1905
193699 Light and dark slope streaks in MOC S05-01802 12.896 41.809 1 2021-05-04 ESP_069351_1930
193697 Lineated valley fill -42.305 104.180 1 2021-05-04 ESP_069349_1380
193695 Terrain in Elysium Planitia 17.123 177.250 1 2021-05-04
193693 Terrain southwest of Scandia Tholi 67.947 193.506 1 2021-05-04 ESP_069345_2485
193691 Northern plains southwest of Lonar Crater 67.562 28.579 1 2021-05-04 ESP_069338_2480
193689 Terrain east of Peridier Crater 24.839 88.947 1 2021-05-04 ESP_069336_2050
193687 Northern mid-latitude crater 35.031 169.402 1 2021-05-04 ESP_069333_2150
193685 Ascraeus Mons 12.592 255.418 1 2021-05-04
193683 Landforms in Tempe Terra 41.198 306.240 1 2021-05-04 ESP_069328_2210
193681 Utopia Planitia 24.585 112.121 1 2021-05-04
193679 Scandia Colles region 68.888 211.154 1 2021-05-04
193677 Ceraunius Fossae 25.170 248.711 1 2021-05-04 ESP_069317_2055
193675 Northern low-latitude terrain 23.664 302.293 1 2021-05-04 ESP_069315_2040
193673 Noachis Terra -26.618 31.863 1 2021-05-04 ESP_069312_1530
193671 Volcanic terrain 31.611 133.576 1 2021-05-04 ESP_069308_2120
193669 Western Amazonis Planitia slope streaks 20.582 189.438 1 2021-05-04 ESP_069306_2010
193667 Candidate recent impact site -9.803 218.303 1 2021-05-04 ESP_069371_1700
193665 Candidate recent impact site 18.638 264.007 1 2021-05-04 ESP_069356_1990
193663 Candidate recent impact site 4.318 207.408 1 2021-05-04 ESP_069345_1845
191811 Terrain sample 14.483 211.747 1 2021-03-16
191809 Fracture in Tharsis -1.255 266.260 1 2021-03-16
191807 Crater -7.274 209.457 1 2021-03-16
191805 Apollinaris Sulci landforms -10.776 177.340 1 2021-03-16
191803 Tharsis region 13.201 249.386 1 2021-03-16 ESP_068710_1935
191801 Arabia Terra 13.064 26.091 1 2021-03-16 ESP_068705_1930
191799 Gully monitoring -38.305 167.475 1 2021-03-16 ESP_068700_1410
191797 Eridania region -35.465 163.925 1 2021-03-16
191795 Channel on Hecates Tholus 32.364 149.636 1 2021-03-16
191793 Fractured terrain -49.522 269.929 1 2021-03-16 ESP_068670_1300
191791 Chryse Planitia 22.577 312.737 1 2021-03-16
191711 Secondary craters 23.708 91.164 1 2021-03-10
191673 Cratered terrain -25.407 347.354 1 2021-03-09
191671 Channel on the margin of Terra Cimmeria 1.367 120.994 1 2021-03-09
191669 Crater on lobate flows 18.553 141.151 1 2021-03-09
191667 Fractured terrain 39.551 274.622 1 2021-03-09
191665 Branched terrain -20.858 4.369 1 2021-03-09
191661 Distal ejecta -43.766 106.095 1 2021-03-08
191659 Dunes -2.694 67.118 1 2021-03-08
191657 Terrain sample -23.303 184.645 1 2021-03-08
191653 Outcrops on crater floor 19.111 4.667 1 2021-03-08
191651 Floor of Cross Crater -29.889 201.949 1 2021-03-08
191649 Candidate recent impact site 21.475 173.276 1 2021-03-08 ESP_069267_2015
191647 Lobate feature in Dawn flyby image 48.269 277.910 1 2021-03-08
191645 Candidate recent impact site on floor of Lambert Crater -19.419 25.378 1 2021-03-08 ESP_068956_1605
191643 Ridges and yardangs in Apollinaris Sulci -12.482 177.370 1 2021-03-08
191641 Candidate recent impact site 15.256 201.715 1 2021-03-08 ESP_069543_1955
189401 Knob on Acidalia Mensa 47.372 336.055 1 2020-12-21 ESP_067598_2275
189183 Gully monitoring -44.331 267.951 1 2020-12-22 ESP_067601_1355
189181 Crater rim -65.660 141.774 1 2020-12-22 ESP_067619_1140
189179 Terrain sample -58.710 249.003 1 2020-12-22 ESP_067615_1210
189177 Terrain sample 19.015 319.393 1 2020-12-22 ESP_067612_1990
189113 Knob on Acidalia Mensa 47.372 336.055 1 2020-12-21 ESP_067730_2275
189103 Tyrrhena Terra -18.437 79.191 1 2020-12-20 ESP_067621_1615
189101 Monitor recent impact -81.480 41.380 1 2020-12-20 ESP_067676_0985
189099 Small craters 43.261 255.544 1 2020-12-20 ESP_067667_2235
189097 Syrtis Major Planum wind streak 5.604 64.589 1 2020-12-20 ESP_067661_1855
189095 South polar residual cap -86.960 266.086 1 2020-12-20 ESP_067643_0930
189093 South polar residual cap -85.338 319.703 1 2020-12-20 ESP_067640_0945
189091 Elysium Planitia 6.588 129.838 1 2020-12-20 ESP_067619_1865
189089 Medusae Fossae Formation 0.719 210.143 1 2020-12-20 ESP_067616_1805
189087 South polar residual cap -84.218 302.408 1 2020-12-19 ESP_067614_0955
189086 Planum Australe -83.811 330.248 1 2020-12-19 ESP_067613_0960
189085 Planum Australe -83.811 330.248 1 2020-12-19 ESP_067626_0960
189084 South polar residual cap -85.555 5.875 1 2020-12-19 ESP_067665_0945
189083 South polar residual cap -85.555 5.875 1 2020-12-19 ESP_067625_0945
189081 Terrain south of Trouvelot Crater 10.250 346.364 1 2020-12-19 ESP_067611_1905
189079 Arabia Terra 28.361 39.179 1 2020-12-19 ESP_067609_2085
189077 Terrain sample -27.699 128.306 1 2020-12-19 ESP_067606_1520
189075 Landforms northwest of Lucus Planum 0.546 179.005 1 2020-12-19 ESP_067604_1805
189073 South polar residual cap -87.847 303.140 1 2020-12-19 ESP_067602_0920
189071 Terrain northeast of Medusae Fossae 4.385 202.176 1 2020-12-19 ESP_067590_1845
189069 Candidate recent impact site 1.386 195.477 1 2020-12-19 ESP_067643_1815
189067 Candidate recent impact site 14.717 237.759 1 2020-12-19 ESP_067615_1950
189065 Candidate recent impact site 14.750 204.699 1 2020-12-19 ESP_067669_1950
189063 Candidate recent impact site 11.583 260.319 1 2020-12-18 ESP_067601_1915
188689 Elysium Planitia 2.850 136.869 1 2020-12-15 ESP_067500_1830
188687 Terrain sample -16.858 89.086 1 2020-12-15 ESP_067515_1630
188685 Monitoring new impact site 2.474 224.107 1 2020-12-15 ESP_067576_1825
188683 Candidate recent impact site 16.934 244.015 1 2020-12-15 ESP_067562_1970
188681 Monitor changes in Richardson Crater dune field -71.999 179.414 1 2020-12-15 ESP_067499_1080
188667 Hellas Montes -36.650 99.229 1 2020-12-14 ESP_067528_1430
188665 Arsia Chasmata region -7.638 241.136 1 2020-12-14
188663 Candidate recent impact site -3.826 257.391 1 2020-12-14 ESP_067588_1760
188661 South polar residual cap -88.929 260.692 1 2020-12-14 ESP_067578_0910
188659 Candidate recent impact site 5.179 136.231 1 2020-12-12 ESP_067566_1850
188657 Gordii Dorsum 4.186 219.273 1 2020-12-12 ESP_067563_1840
188655 South polar residual cap -85.126 343.250 1 2020-12-11 ESP_067560_0950
188653 Candidate recent impact site 22.933 260.064 1 2020-12-11 ESP_067535_2030
188651 Crater in Arabia Terra 16.452 4.613 1 2020-12-11 ESP_067518_1970
188649 South polar terrain -86.146 185.841 1 2020-12-11 ESP_067517_0860
188641 Ariadnes Colles -34.044 174.104 1 2020-12-11 ESP_067512_1455

Each suggestion is given a unique ID. A stereo suggestion will be made into a pair at the discretion of the Science Theme Lead.

Suggestion title.

Latitudes are expressed in planetocentric degrees.

Longitude are measured in degrees and range east from 0 to 360.

1 for a single suggestion, STEREO for a stereo suggestion, otherwise the number of suggestions in a seasonal or other repeat set.

The date on which the suggestion was created.

If the suggestion has been retired, a link to the observation page.

The username of the suggester.